sensor_id;sensor_type;location;lat;lon;timestamp;P1;durP1;ratioP1;P2;durP2;ratioP2
26335;SDS011;14047;50.936;4.654;2023-02-03T00:00:06;8.15;;;2.50;;
26335;SDS011;14047;50.936;4.654;2023-02-03T00:02:36;11.05;;;3.45;;
26335;SDS011;14047;50.936;4.654;2023-02-03T00:05:02;6.32;;;2.92;;
26335;SDS011;14047;50.936;4.654;2023-02-03T00:07:28;8.63;;;3.00;;
26335;SDS011;14047;50.936;4.654;2023-02-03T00:09:55;12.43;;;3.13;;
26335;SDS011;14047;50.936;4.654;2023-02-03T00:12:21;21.23;;;3.13;;
26335;SDS011;14047;50.936;4.654;2023-02-03T00:14:48;16.55;;;3.58;;
26335;SDS011;14047;50.936;4.654;2023-02-03T00:17:14;15.00;;;3.58;;
26335;SDS011;14047;50.936;4.654;2023-02-03T00:19:40;8.88;;;2.80;;
26335;SDS011;14047;50.936;4.654;2023-02-03T00:22:06;12.00;;;3.53;;
26335;SDS011;14047;50.936;4.654;2023-02-03T00:24:31;10.40;;;3.30;;
26335;SDS011;14047;50.936;4.654;2023-02-03T00:26:57;10.85;;;3.15;;
26335;SDS011;14047;50.936;4.654;2023-02-03T00:29:23;15.20;;;3.60;;
26335;SDS011;14047;50.936;4.654;2023-02-03T00:31:53;9.98;;;2.58;;
26335;SDS011;14047;50.936;4.654;2023-02-03T00:34:20;11.07;;;3.42;;
26335;SDS011;14047;50.936;4.654;2023-02-03T00:36:49;9.25;;;2.63;;
26335;SDS011;14047;50.936;4.654;2023-02-03T00:39:15;9.75;;;2.88;;
26335;SDS011;14047;50.936;4.654;2023-02-03T00:41:41;10.75;;;2.70;;
26335;SDS011;14047;50.936;4.654;2023-02-03T00:44:07;12.18;;;3.25;;
26335;SDS011;14047;50.936;4.654;2023-02-03T00:46:33;8.82;;;3.67;;
26335;SDS011;14047;50.936;4.654;2023-02-03T00:49:01;9.13;;;2.75;;
26335;SDS011;14047;50.936;4.654;2023-02-03T00:51:28;13.20;;;2.92;;
26335;SDS011;14047;50.936;4.654;2023-02-03T00:53:54;16.52;;;2.55;;
26335;SDS011;14047;50.936;4.654;2023-02-03T00:56:21;12.32;;;2.67;;
26335;SDS011;14047;50.936;4.654;2023-02-03T00:58:47;13.43;;;2.72;;
26335;SDS011;14047;50.936;4.654;2023-02-03T01:01:13;8.88;;;2.17;;
26335;SDS011;14047;50.936;4.654;2023-02-03T01:03:39;6.72;;;2.17;;
26335;SDS011;14047;50.936;4.654;2023-02-03T01:06:13;14.05;;;2.60;;
26335;SDS011;14047;50.936;4.654;2023-02-03T01:08:41;8.68;;;2.50;;
26335;SDS011;14047;50.936;4.654;2023-02-03T01:11:08;15.52;;;3.38;;
26335;SDS011;14047;50.936;4.654;2023-02-03T01:13:35;9.60;;;2.50;;
26335;SDS011;14047;50.936;4.654;2023-02-03T01:16:08;15.10;;;2.28;;
26335;SDS011;14047;50.936;4.654;2023-02-03T01:18:35;10.70;;;2.17;;
26335;SDS011;14047;50.936;4.654;2023-02-03T01:21:06;9.10;;;2.63;;
26335;SDS011;14047;50.936;4.654;2023-02-03T01:23:34;10.98;;;2.20;;
26335;SDS011;14047;50.936;4.654;2023-02-03T01:26:04;12.00;;;2.85;;
26335;SDS011;14047;50.936;4.654;2023-02-03T01:28:33;12.80;;;2.90;;
26335;SDS011;14047;50.936;4.654;2023-02-03T01:33:39;15.55;;;2.40;;
26335;SDS011;14047;50.936;4.654;2023-02-03T01:36:06;13.98;;;3.20;;
26335;SDS011;14047;50.936;4.654;2023-02-03T01:38:33;10.00;;;2.55;;
26335;SDS011;14047;50.936;4.654;2023-02-03T01:40:59;10.65;;;2.85;;
26335;SDS011;14047;50.936;4.654;2023-02-03T01:43:29;18.17;;;3.50;;
26335;SDS011;14047;50.936;4.654;2023-02-03T01:46:01;12.02;;;2.90;;
26335;SDS011;14047;50.936;4.654;2023-02-03T01:48:48;11.13;;;2.92;;
26335;SDS011;14047;50.936;4.654;2023-02-03T01:51:16;19.42;;;3.22;;
26335;SDS011;14047;50.936;4.654;2023-02-03T01:53:42;7.80;;;1.90;;
26335;SDS011;14047;50.936;4.654;2023-02-03T01:56:08;9.57;;;2.28;;
26335;SDS011;14047;50.936;4.654;2023-02-03T01:58:36;8.80;;;2.00;;
26335;SDS011;14047;50.936;4.654;2023-02-03T02:01:04;7.40;;;1.75;;
26335;SDS011;14047;50.936;4.654;2023-02-03T02:03:31;12.30;;;2.40;;
26335;SDS011;14047;50.936;4.654;2023-02-03T02:06:10;15.93;;;2.17;;
26335;SDS011;14047;50.936;4.654;2023-02-03T02:08:39;11.95;;;2.22;;
26335;SDS011;14047;50.936;4.654;2023-02-03T02:11:08;13.88;;;2.50;;
26335;SDS011;14047;50.936;4.654;2023-02-03T02:13:34;12.30;;;2.10;;
26335;SDS011;14047;50.936;4.654;2023-02-03T02:16:11;11.25;;;2.42;;
26335;SDS011;14047;50.936;4.654;2023-02-03T02:18:51;19.20;;;2.30;;
26335;SDS011;14047;50.936;4.654;2023-02-03T02:27:09;12.57;;;1.98;;
26335;SDS011;14047;50.936;4.654;2023-02-03T02:35:49;10.48;;;2.00;;
26335;SDS011;14047;50.936;4.654;2023-02-03T02:38:41;9.38;;;1.92;;
26335;SDS011;14047;50.936;4.654;2023-02-03T02:44:06;7.13;;;1.63;;
26335;SDS011;14047;50.936;4.654;2023-02-03T02:46:49;10.57;;;2.53;;
26335;SDS011;14047;50.936;4.654;2023-02-03T02:49:20;8.98;;;1.90;;
26335;SDS011;14047;50.936;4.654;2023-02-03T02:52:04;11.52;;;2.00;;
26335;SDS011;14047;50.936;4.654;2023-02-03T02:54:33;15.85;;;2.03;;
26335;SDS011;14047;50.936;4.654;2023-02-03T02:57:05;8.13;;;1.50;;
26335;SDS011;14047;50.936;4.654;2023-02-03T02:59:35;12.38;;;1.65;;
26335;SDS011;14047;50.936;4.654;2023-02-03T03:02:01;8.50;;;1.30;;
26335;SDS011;14047;50.936;4.654;2023-02-03T03:04:29;5.75;;;1.23;;
26335;SDS011;14047;50.936;4.654;2023-02-03T03:07:08;14.95;;;2.15;;
26335;SDS011;14047;50.936;4.654;2023-02-03T03:09:39;9.07;;;1.88;;
26335;SDS011;14047;50.936;4.654;2023-02-03T03:12:19;10.70;;;2.55;;
26335;SDS011;14047;50.936;4.654;2023-02-03T03:14:51;8.98;;;2.22;;
26335;SDS011;14047;50.936;4.654;2023-02-03T03:17:27;4.57;;;1.40;;
26335;SDS011;14047;50.936;4.654;2023-02-03T03:19:59;10.35;;;1.83;;
26335;SDS011;14047;50.936;4.654;2023-02-03T03:22:36;8.52;;;1.63;;
26335;SDS011;14047;50.936;4.654;2023-02-03T03:25:09;7.47;;;1.75;;
26335;SDS011;14047;50.936;4.654;2023-02-03T03:27:40;15.68;;;1.70;;
26335;SDS011;14047;50.936;4.654;2023-02-03T03:30:10;12.65;;;1.75;;
26335;SDS011;14047;50.936;4.654;2023-02-03T03:32:41;9.70;;;1.70;;
26335;SDS011;14047;50.936;4.654;2023-02-03T03:35:07;8.25;;;1.67;;
26335;SDS011;14047;50.936;4.654;2023-02-03T03:37:40;8.90;;;1.52;;
26335;SDS011;14047;50.936;4.654;2023-02-03T03:40:23;9.35;;;1.45;;
26335;SDS011;14047;50.936;4.654;2023-02-03T03:42:57;6.65;;;1.35;;
26335;SDS011;14047;50.936;4.654;2023-02-03T03:45:33;11.80;;;2.15;;
26335;SDS011;14047;50.936;4.654;2023-02-03T03:48:18;9.50;;;2.00;;
26335;SDS011;14047;50.936;4.654;2023-02-03T03:50:52;9.18;;;1.50;;
26335;SDS011;14047;50.936;4.654;2023-02-03T03:53:26;9.68;;;1.55;;
26335;SDS011;14047;50.936;4.654;2023-02-03T03:55:54;7.88;;;1.50;;
26335;SDS011;14047;50.936;4.654;2023-02-03T03:58:23;10.27;;;1.65;;
26335;SDS011;14047;50.936;4.654;2023-02-03T04:00:54;8.98;;;1.73;;
26335;SDS011;14047;50.936;4.654;2023-02-03T04:03:38;7.53;;;1.60;;
26335;SDS011;14047;50.936;4.654;2023-02-03T04:06:08;12.95;;;2.28;;
26335;SDS011;14047;50.936;4.654;2023-02-03T04:08:34;8.20;;;1.45;;
26335;SDS011;14047;50.936;4.654;2023-02-03T04:11:00;8.57;;;1.30;;
26335;SDS011;14047;50.936;4.654;2023-02-03T04:13:26;4.32;;;1.40;;
26335;SDS011;14047;50.936;4.654;2023-02-03T04:15:52;12.07;;;1.42;;
26335;SDS011;14047;50.936;4.654;2023-02-03T04:18:18;3.53;;;1.17;;
26335;SDS011;14047;50.936;4.654;2023-02-03T04:20:43;6.28;;;1.20;;
26335;SDS011;14047;50.936;4.654;2023-02-03T04:23:09;6.07;;;1.52;;
26335;SDS011;14047;50.936;4.654;2023-02-03T04:25:37;4.93;;;1.35;;
26335;SDS011;14047;50.936;4.654;2023-02-03T04:28:03;6.50;;;1.17;;
26335;SDS011;14047;50.936;4.654;2023-02-03T04:30:30;6.50;;;1.02;;
26335;SDS011;14047;50.936;4.654;2023-02-03T04:32:56;5.63;;;1.20;;
26335;SDS011;14047;50.936;4.654;2023-02-03T04:35:22;9.43;;;1.40;;
26335;SDS011;14047;50.936;4.654;2023-02-03T04:37:48;7.88;;;1.52;;
26335;SDS011;14047;50.936;4.654;2023-02-03T04:40:14;10.20;;;1.52;;
26335;SDS011;14047;50.936;4.654;2023-02-03T04:42:40;10.77;;;1.77;;
26335;SDS011;14047;50.936;4.654;2023-02-03T04:45:07;6.53;;;1.20;;
26335;SDS011;14047;50.936;4.654;2023-02-03T04:47:34;4.72;;;1.20;;
26335;SDS011;14047;50.936;4.654;2023-02-03T04:50:00;6.85;;;1.35;;
26335;SDS011;14047;50.936;4.654;2023-02-03T04:52:27;5.38;;;1.40;;
26335;SDS011;14047;50.936;4.654;2023-02-03T04:54:53;16.35;;;1.73;;
26335;SDS011;14047;50.936;4.654;2023-02-03T04:57:19;4.13;;;1.15;;
26335;SDS011;14047;50.936;4.654;2023-02-03T04:59:45;10.38;;;1.45;;
26335;SDS011;14047;50.936;4.654;2023-02-03T05:02:10;7.78;;;1.38;;
26335;SDS011;14047;50.936;4.654;2023-02-03T05:04:37;10.80;;;1.85;;
26335;SDS011;14047;50.936;4.654;2023-02-03T05:07:03;9.93;;;1.67;;
26335;SDS011;14047;50.936;4.654;2023-02-03T05:09:29;9.02;;;1.48;;
26335;SDS011;14047;50.936;4.654;2023-02-03T05:11:55;5.47;;;1.52;;
26335;SDS011;14047;50.936;4.654;2023-02-03T05:14:21;8.80;;;1.30;;
26335;SDS011;14047;50.936;4.654;2023-02-03T05:16:47;10.70;;;1.50;;
26335;SDS011;14047;50.936;4.654;2023-02-03T05:19:13;9.75;;;1.33;;
26335;SDS011;14047;50.936;4.654;2023-02-03T05:21:39;9.15;;;1.20;;
26335;SDS011;14047;50.936;4.654;2023-02-03T05:24:05;4.35;;;1.00;;
26335;SDS011;14047;50.936;4.654;2023-02-03T05:26:32;7.20;;;1.23;;
26335;SDS011;14047;50.936;4.654;2023-02-03T05:28:59;7.60;;;1.23;;
26335;SDS011;14047;50.936;4.654;2023-02-03T05:31:25;11.68;;;1.20;;
26335;SDS011;14047;50.936;4.654;2023-02-03T05:33:51;6.28;;;1.20;;
26335;SDS011;14047;50.936;4.654;2023-02-03T05:36:17;3.53;;;0.90;;
26335;SDS011;14047;50.936;4.654;2023-02-03T05:38:43;3.10;;;1.17;;
26335;SDS011;14047;50.936;4.654;2023-02-03T05:41:10;5.00;;;1.35;;
26335;SDS011;14047;50.936;4.654;2023-02-03T05:43:56;5.72;;;1.10;;
26335;SDS011;14047;50.936;4.654;2023-02-03T05:46:22;8.57;;;1.08;;
26335;SDS011;14047;50.936;4.654;2023-02-03T05:48:48;4.07;;;0.90;;
26335;SDS011;14047;50.936;4.654;2023-02-03T05:51:13;7.45;;;1.23;;
26335;SDS011;14047;50.936;4.654;2023-02-03T05:53:39;3.67;;;1.00;;
26335;SDS011;14047;50.936;4.654;2023-02-03T05:56:05;7.50;;;1.35;;
26335;SDS011;14047;50.936;4.654;2023-02-03T05:58:32;5.35;;;1.10;;
26335;SDS011;14047;50.936;4.654;2023-02-03T06:00:59;7.03;;;1.40;;
26335;SDS011;14047;50.936;4.654;2023-02-03T06:03:25;6.70;;;0.90;;
26335;SDS011;14047;50.936;4.654;2023-02-03T06:05:51;11.40;;;3.55;;
26335;SDS011;14047;50.936;4.654;2023-02-03T06:08:17;3.05;;;0.90;;
26335;SDS011;14047;50.936;4.654;2023-02-03T06:10:43;4.38;;;1.30;;
26335;SDS011;14047;50.936;4.654;2023-02-03T06:13:10;8.82;;;1.27;;
26335;SDS011;14047;50.936;4.654;2023-02-03T06:15:37;9.75;;;1.80;;
26335;SDS011;14047;50.936;4.654;2023-02-03T06:18:04;9.15;;;1.50;;
26335;SDS011;14047;50.936;4.654;2023-02-03T06:20:30;8.18;;;1.10;;
26335;SDS011;14047;50.936;4.654;2023-02-03T06:22:56;7.07;;;1.58;;
26335;SDS011;14047;50.936;4.654;2023-02-03T06:25:22;4.55;;;0.82;;
26335;SDS011;14047;50.936;4.654;2023-02-03T06:27:48;8.18;;;1.38;;
26335;SDS011;14047;50.936;4.654;2023-02-03T06:30:15;3.17;;;1.13;;
26335;SDS011;14047;50.936;4.654;2023-02-03T06:32:41;5.15;;;1.40;;
26335;SDS011;14047;50.936;4.654;2023-02-03T06:35:07;4.97;;;1.33;;
26335;SDS011;14047;50.936;4.654;2023-02-03T06:37:33;4.47;;;1.50;;
26335;SDS011;14047;50.936;4.654;2023-02-03T06:40:00;2.97;;;1.25;;
26335;SDS011;14047;50.936;4.654;2023-02-03T06:42:26;8.63;;;1.33;;
26335;SDS011;14047;50.936;4.654;2023-02-03T06:44:52;5.55;;;1.30;;
26335;SDS011;14047;50.936;4.654;2023-02-03T06:47:19;8.32;;;1.15;;
26335;SDS011;14047;50.936;4.654;2023-02-03T06:49:45;5.93;;;1.05;;
26335;SDS011;14047;50.936;4.654;2023-02-03T06:52:11;5.28;;;1.48;;
26335;SDS011;14047;50.936;4.654;2023-02-03T06:54:37;4.72;;;1.23;;
26335;SDS011;14047;50.936;4.654;2023-02-03T06:57:03;5.97;;;1.50;;
26335;SDS011;14047;50.936;4.654;2023-02-03T06:59:29;4.05;;;0.90;;
26335;SDS011;14047;50.936;4.654;2023-02-03T07:01:55;7.07;;;1.85;;
26335;SDS011;14047;50.936;4.654;2023-02-03T07:04:21;4.47;;;1.10;;
26335;SDS011;14047;50.936;4.654;2023-02-03T07:06:48;5.57;;;1.25;;
26335;SDS011;14047;50.936;4.654;2023-02-03T07:09:14;5.45;;;1.20;;
26335;SDS011;14047;50.936;4.654;2023-02-03T07:11:40;3.60;;;1.60;;
26335;SDS011;14047;50.936;4.654;2023-02-03T07:14:06;5.03;;;1.73;;
26335;SDS011;14047;50.936;4.654;2023-02-03T07:16:32;7.10;;;1.20;;
26335;SDS011;14047;50.936;4.654;2023-02-03T07:18:58;4.93;;;1.58;;
26335;SDS011;14047;50.936;4.654;2023-02-03T07:21:24;6.80;;;1.40;;
26335;SDS011;14047;50.936;4.654;2023-02-03T07:23:50;5.85;;;1.00;;
26335;SDS011;14047;50.936;4.654;2023-02-03T07:26:16;4.07;;;1.25;;
26335;SDS011;14047;50.936;4.654;2023-02-03T07:28:43;4.45;;;1.30;;
26335;SDS011;14047;50.936;4.654;2023-02-03T07:31:09;6.25;;;1.10;;
26335;SDS011;14047;50.936;4.654;2023-02-03T07:33:35;6.28;;;1.40;;
26335;SDS011;14047;50.936;4.654;2023-02-03T07:36:02;6.15;;;1.65;;
26335;SDS011;14047;50.936;4.654;2023-02-03T07:38:29;6.00;;;1.33;;
26335;SDS011;14047;50.936;4.654;2023-02-03T07:40:55;4.72;;;1.10;;
26335;SDS011;14047;50.936;4.654;2023-02-03T07:43:21;7.00;;;1.35;;
26335;SDS011;14047;50.936;4.654;2023-02-03T07:45:47;4.35;;;1.27;;
26335;SDS011;14047;50.936;4.654;2023-02-03T07:48:13;5.50;;;1.33;;
26335;SDS011;14047;50.936;4.654;2023-02-03T07:50:39;11.23;;;1.40;;
26335;SDS011;14047;50.936;4.654;2023-02-03T07:53:05;5.63;;;1.15;;
26335;SDS011;14047;50.936;4.654;2023-02-03T07:55:38;8.20;;;1.88;;
26335;SDS011;14047;50.936;4.654;2023-02-03T07:58:04;6.32;;;1.20;;
26335;SDS011;14047;50.936;4.654;2023-02-03T08:00:31;6.15;;;1.42;;
26335;SDS011;14047;50.936;4.654;2023-02-03T08:02:56;5.13;;;1.38;;
26335;SDS011;14047;50.936;4.654;2023-02-03T08:05:22;5.68;;;1.05;;
26335;SDS011;14047;50.936;4.654;2023-02-03T08:07:48;6.00;;;1.25;;
26335;SDS011;14047;50.936;4.654;2023-02-03T08:10:14;5.18;;;1.25;;
26335;SDS011;14047;50.936;4.654;2023-02-03T08:12:45;8.38;;;1.38;;
26335;SDS011;14047;50.936;4.654;2023-02-03T08:15:11;4.97;;;1.50;;
26335;SDS011;14047;50.936;4.654;2023-02-03T08:17:38;7.93;;;1.42;;
26335;SDS011;14047;50.936;4.654;2023-02-03T08:20:06;3.00;;;0.90;;
26335;SDS011;14047;50.936;4.654;2023-02-03T08:22:33;8.82;;;1.45;;
26335;SDS011;14047;50.936;4.654;2023-02-03T08:24:59;8.50;;;2.05;;
26335;SDS011;14047;50.936;4.654;2023-02-03T08:27:25;8.93;;;1.65;;
26335;SDS011;14047;50.936;4.654;2023-02-03T08:29:50;8.38;;;1.35;;
26335;SDS011;14047;50.936;4.654;2023-02-03T08:32:17;4.20;;;1.15;;
26335;SDS011;14047;50.936;4.654;2023-02-03T08:34:46;6.85;;;1.30;;
26335;SDS011;14047;50.936;4.654;2023-02-03T08:37:13;4.47;;;1.10;;
26335;SDS011;14047;50.936;4.654;2023-02-03T08:39:41;5.32;;;1.70;;
26335;SDS011;14047;50.936;4.654;2023-02-03T08:42:07;11.07;;;1.65;;
26335;SDS011;14047;50.936;4.654;2023-02-03T08:44:33;4.57;;;1.45;;
26335;SDS011;14047;50.936;4.654;2023-02-03T08:46:59;5.68;;;1.60;;
26335;SDS011;14047;50.936;4.654;2023-02-03T08:49:26;5.60;;;1.27;;
26335;SDS011;14047;50.936;4.654;2023-02-03T08:51:54;11.82;;;1.30;;
26335;SDS011;14047;50.936;4.654;2023-02-03T08:54:20;11.48;;;1.50;;
26335;SDS011;14047;50.936;4.654;2023-02-03T08:56:46;5.25;;;0.90;;
26335;SDS011;14047;50.936;4.654;2023-02-03T08:59:13;5.80;;;1.17;;
26335;SDS011;14047;50.936;4.654;2023-02-03T09:01:39;7.30;;;1.25;;
26335;SDS011;14047;50.936;4.654;2023-02-03T09:04:09;7.35;;;1.60;;
26335;SDS011;14047;50.936;4.654;2023-02-03T09:06:35;9.90;;;1.40;;
26335;SDS011;14047;50.936;4.654;2023-02-03T09:09:01;8.25;;;1.15;;
26335;SDS011;14047;50.936;4.654;2023-02-03T09:11:27;8.73;;;1.20;;
26335;SDS011;14047;50.936;4.654;2023-02-03T09:13:53;9.30;;;1.75;;
26335;SDS011;14047;50.936;4.654;2023-02-03T09:16:21;5.00;;;1.17;;
26335;SDS011;14047;50.936;4.654;2023-02-03T09:18:47;6.93;;;1.52;;
26335;SDS011;14047;50.936;4.654;2023-02-03T09:21:13;5.45;;;1.08;;
26335;SDS011;14047;50.936;4.654;2023-02-03T09:23:41;6.15;;;1.30;;
26335;SDS011;14047;50.936;4.654;2023-02-03T09:26:09;13.35;;;1.92;;
26335;SDS011;14047;50.936;4.654;2023-02-03T09:28:36;9.18;;;1.60;;
26335;SDS011;14047;50.936;4.654;2023-02-03T09:31:04;6.97;;;1.10;;
26335;SDS011;14047;50.936;4.654;2023-02-03T09:33:37;4.60;;;1.25;;
26335;SDS011;14047;50.936;4.654;2023-02-03T09:36:04;6.15;;;1.33;;
26335;SDS011;14047;50.936;4.654;2023-02-03T09:38:32;10.88;;;1.42;;
26335;SDS011;14047;50.936;4.654;2023-02-03T09:48:59;8.18;;;1.60;;
26335;SDS011;14047;50.936;4.654;2023-02-03T09:51:41;7.05;;;1.77;;
26335;SDS011;14047;50.936;4.654;2023-02-03T09:56:57;11.85;;;2.42;;
26335;SDS011;14047;50.936;4.654;2023-02-03T09:59:25;7.43;;;1.83;;
26335;SDS011;14047;50.936;4.654;2023-02-03T10:02:40;7.88;;;1.80;;
26335;SDS011;14047;50.936;4.654;2023-02-03T10:18:33;4.80;;;1.88;;
26335;SDS011;14047;50.936;4.654;2023-02-03T10:21:12;4.82;;;2.05;;
26335;SDS011;14047;50.936;4.654;2023-02-03T10:24:03;7.03;;;2.38;;
26335;SDS011;14047;50.936;4.654;2023-02-03T10:26:34;7.32;;;2.30;;
26335;SDS011;14047;50.936;4.654;2023-02-03T10:29:04;9.50;;;1.98;;
26335;SDS011;14047;50.936;4.654;2023-02-03T10:31:40;4.78;;;2.08;;
26335;SDS011;14047;50.936;4.654;2023-02-03T10:36:39;4.47;;;2.20;;
26335;SDS011;14047;50.936;4.654;2023-02-03T10:39:37;10.90;;;2.50;;
26335;SDS011;14047;50.936;4.654;2023-02-03T10:42:08;7.35;;;2.30;;
26335;SDS011;14047;50.936;4.654;2023-02-03T10:49:46;6.60;;;2.70;;
26335;SDS011;14047;50.936;4.654;2023-02-03T10:52:31;7.35;;;2.63;;
26335;SDS011;14047;50.936;4.654;2023-02-03T10:55:01;14.38;;;2.70;;
26335;SDS011;14047;50.936;4.654;2023-02-03T10:57:33;10.10;;;2.60;;
26335;SDS011;14047;50.936;4.654;2023-02-03T11:00:05;10.02;;;2.35;;
26335;SDS011;14047;50.936;4.654;2023-02-03T11:02:45;8.82;;;2.58;;
26335;SDS011;14047;50.936;4.654;2023-02-03T11:05:20;5.40;;;2.67;;
26335;SDS011;14047;50.936;4.654;2023-02-03T11:07:49;12.75;;;3.20;;
26335;SDS011;14047;50.936;4.654;2023-02-03T11:13:17;5.63;;;2.75;;
26335;SDS011;14047;50.936;4.654;2023-02-03T11:15:55;9.88;;;2.78;;
26335;SDS011;14047;50.936;4.654;2023-02-03T11:18:25;9.52;;;2.80;;
26335;SDS011;14047;50.936;4.654;2023-02-03T11:20:51;7.18;;;3.22;;
26335;SDS011;14047;50.936;4.654;2023-02-03T11:23:18;8.80;;;2.80;;
26335;SDS011;14047;50.936;4.654;2023-02-03T11:25:45;7.97;;;2.53;;
26335;SDS011;14047;50.936;4.654;2023-02-03T11:28:11;7.97;;;2.78;;
26335;SDS011;14047;50.936;4.654;2023-02-03T11:30:38;8.85;;;2.72;;
26335;SDS011;14047;50.936;4.654;2023-02-03T11:33:14;12.43;;;2.35;;
26335;SDS011;14047;50.936;4.654;2023-02-03T11:35:58;5.60;;;3.17;;
26335;SDS011;14047;50.936;4.654;2023-02-03T11:38:30;5.28;;;2.65;;
26335;SDS011;14047;50.936;4.654;2023-02-03T11:41:01;7.93;;;2.72;;
26335;SDS011;14047;50.936;4.654;2023-02-03T11:43:28;10.07;;;3.35;;
26335;SDS011;14047;50.936;4.654;2023-02-03T11:46:02;7.70;;;3.65;;
26335;SDS011;14047;50.936;4.654;2023-02-03T11:48:35;6.32;;;3.15;;
26335;SDS011;14047;50.936;4.654;2023-02-03T11:56:21;7.55;;;3.53;;
26335;SDS011;14047;50.936;4.654;2023-02-03T12:23:00;10.45;;;2.88;;
26335;SDS011;14047;50.936;4.654;2023-02-03T12:31:45;9.93;;;2.80;;
26335;SDS011;14047;50.936;4.654;2023-02-03T12:34:33;4.38;;;2.40;;
26335;SDS011;14047;50.936;4.654;2023-02-03T12:39:51;7.88;;;2.53;;
26335;SDS011;14047;50.936;4.654;2023-02-03T12:42:21;9.70;;;2.80;;
26335;SDS011;14047;50.936;4.654;2023-02-03T12:47:31;4.80;;;2.40;;
26335;SDS011;14047;50.936;4.654;2023-02-03T12:50:03;6.28;;;2.80;;
26335;SDS011;14047;50.936;4.654;2023-02-03T12:52:42;6.40;;;2.63;;
26335;SDS011;14047;50.936;4.654;2023-02-03T12:58:12;8.43;;;3.00;;
26335;SDS011;14047;50.936;4.654;2023-02-03T13:00:51;9.30;;;2.88;;
26335;SDS011;14047;50.936;4.654;2023-02-03T13:07:03;7.45;;;1.90;;
26335;SDS011;14047;50.936;4.654;2023-02-03T13:11:50;9.38;;;2.65;;
26335;SDS011;14047;50.936;4.654;2023-02-03T13:20:16;8.38;;;2.03;;
26335;SDS011;14047;50.936;4.654;2023-02-03T13:22:44;7.45;;;1.75;;
26335;SDS011;14047;50.936;4.654;2023-02-03T13:25:22;5.65;;;1.90;;
26335;SDS011;14047;50.936;4.654;2023-02-03T13:36:06;8.02;;;1.80;;
26335;SDS011;14047;50.936;4.654;2023-02-03T13:44:38;9.50;;;1.95;;
26335;SDS011;14047;50.936;4.654;2023-02-03T13:47:05;4.97;;;2.22;;
26335;SDS011;14047;50.936;4.654;2023-02-03T13:49:38;8.63;;;1.98;;
26335;SDS011;14047;50.936;4.654;2023-02-03T13:54:58;6.10;;;2.10;;
26335;SDS011;14047;50.936;4.654;2023-02-03T13:57:33;8.25;;;2.25;;
26335;SDS011;14047;50.936;4.654;2023-02-03T14:00:01;7.18;;;2.13;;
26335;SDS011;14047;50.936;4.654;2023-02-03T14:02:51;7.65;;;1.70;;
26335;SDS011;14047;50.936;4.654;2023-02-03T14:05:41;11.27;;;2.25;;
26335;SDS011;14047;50.936;4.654;2023-02-03T14:16:42;4.20;;;1.70;;
26335;SDS011;14047;50.936;4.654;2023-02-03T14:21:47;5.13;;;1.65;;
26335;SDS011;14047;50.936;4.654;2023-02-03T14:24:16;4.28;;;1.80;;
26335;SDS011;14047;50.936;4.654;2023-02-03T14:26:44;5.03;;;1.90;;
26335;SDS011;14047;50.936;4.654;2023-02-03T14:29:25;5.00;;;1.90;;
26335;SDS011;14047;50.936;4.654;2023-02-03T14:37:34;6.95;;;2.03;;
26335;SDS011;14047;50.936;4.654;2023-02-03T14:40:03;8.45;;;2.67;;
26335;SDS011;14047;50.936;4.654;2023-02-03T15:00:07;4.90;;;2.05;;
26335;SDS011;14047;50.936;4.654;2023-02-03T15:08:28;5.28;;;2.30;;
26335;SDS011;14047;50.936;4.654;2023-02-03T15:10:54;13.10;;;2.95;;
26335;SDS011;14047;50.936;4.654;2023-02-03T15:13:24;5.97;;;2.25;;
26335;SDS011;14047;50.936;4.654;2023-02-03T15:15:59;8.38;;;2.35;;
26335;SDS011;14047;50.936;4.654;2023-02-03T15:18:28;11.13;;;2.55;;
26335;SDS011;14047;50.936;4.654;2023-02-03T15:20:56;8.93;;;2.80;;
26335;SDS011;14047;50.936;4.654;2023-02-03T15:23:23;7.97;;;2.38;;
26335;SDS011;14047;50.936;4.654;2023-02-03T15:25:55;6.25;;;1.90;;
26335;SDS011;14047;50.936;4.654;2023-02-03T15:28:26;7.70;;;2.50;;
26335;SDS011;14047;50.936;4.654;2023-02-03T15:33:28;7.82;;;3.00;;
26335;SDS011;14047;50.936;4.654;2023-02-03T15:35:58;7.25;;;2.38;;
26335;SDS011;14047;50.936;4.654;2023-02-03T15:38:38;9.00;;;2.40;;
26335;SDS011;14047;50.936;4.654;2023-02-03T15:41:27;5.25;;;2.63;;
26335;SDS011;14047;50.936;4.654;2023-02-03T15:43:59;9.45;;;2.28;;
26335;SDS011;14047;50.936;4.654;2023-02-03T15:46:33;4.57;;;2.08;;
26335;SDS011;14047;50.936;4.654;2023-02-03T15:51:43;8.82;;;2.78;;
26335;SDS011;14047;50.936;4.654;2023-02-03T15:54:22;8.57;;;2.75;;
26335;SDS011;14047;50.936;4.654;2023-02-03T15:57:02;6.82;;;2.03;;
26335;SDS011;14047;50.936;4.654;2023-02-03T15:59:53;4.70;;;2.15;;
26335;SDS011;14047;50.936;4.654;2023-02-03T16:02:43;7.20;;;1.90;;
26335;SDS011;14047;50.936;4.654;2023-02-03T16:07:42;14.18;;;3.85;;
26335;SDS011;14047;50.936;4.654;2023-02-03T16:10:21;5.00;;;2.15;;
26335;SDS011;14047;50.936;4.654;2023-02-03T16:13:41;8.80;;;2.42;;
26335;SDS011;14047;50.936;4.654;2023-02-03T16:18:52;8.95;;;2.53;;
26335;SDS011;14047;50.936;4.654;2023-02-03T16:21:32;9.45;;;2.45;;
26335;SDS011;14047;50.936;4.654;2023-02-03T16:29:52;11.07;;;3.30;;
26335;SDS011;14047;50.936;4.654;2023-02-03T16:32:38;11.45;;;3.25;;
26335;SDS011;14047;50.936;4.654;2023-02-03T16:35:22;11.18;;;3.28;;
26335;SDS011;14047;50.936;4.654;2023-02-03T16:38:14;8.75;;;2.83;;
26335;SDS011;14047;50.936;4.654;2023-02-03T16:41:15;6.97;;;2.90;;
26335;SDS011;14047;50.936;4.654;2023-02-03T16:44:00;8.75;;;4.05;;
26335;SDS011;14047;50.936;4.654;2023-02-03T16:46:45;9.15;;;4.30;;
26335;SDS011;14047;50.936;4.654;2023-02-03T16:49:30;7.82;;;3.60;;
26335;SDS011;14047;50.936;4.654;2023-02-03T16:52:15;9.13;;;3.05;;
26335;SDS011;14047;50.936;4.654;2023-02-03T16:54:41;7.35;;;2.90;;
26335;SDS011;14047;50.936;4.654;2023-02-03T16:57:10;8.40;;;3.30;;
26335;SDS011;14047;50.936;4.654;2023-02-03T16:59:36;12.27;;;3.42;;
26335;SDS011;14047;50.936;4.654;2023-02-03T17:02:01;6.35;;;2.72;;
26335;SDS011;14047;50.936;4.654;2023-02-03T17:04:27;5.85;;;3.20;;
26335;SDS011;14047;50.936;4.654;2023-02-03T17:06:53;11.27;;;3.08;;
26335;SDS011;14047;50.936;4.654;2023-02-03T17:09:19;12.93;;;3.10;;
26335;SDS011;14047;50.936;4.654;2023-02-03T17:11:47;10.32;;;3.35;;
26335;SDS011;14047;50.936;4.654;2023-02-03T17:14:14;12.00;;;3.80;;
26335;SDS011;14047;50.936;4.654;2023-02-03T17:16:40;6.38;;;3.58;;
26335;SDS011;14047;50.936;4.654;2023-02-03T17:19:10;11.70;;;3.28;;
26335;SDS011;14047;50.936;4.654;2023-02-03T17:21:36;8.55;;;3.83;;
26335;SDS011;14047;50.936;4.654;2023-02-03T17:24:03;11.68;;;4.30;;
26335;SDS011;14047;50.936;4.654;2023-02-03T17:26:29;7.82;;;4.30;;
26335;SDS011;14047;50.936;4.654;2023-02-03T17:28:56;10.02;;;3.88;;
26335;SDS011;14047;50.936;4.654;2023-02-03T17:31:27;14.10;;;3.83;;
26335;SDS011;14047;50.936;4.654;2023-02-03T17:33:54;10.85;;;3.53;;
26335;SDS011;14047;50.936;4.654;2023-02-03T17:36:20;9.95;;;3.33;;
26335;SDS011;14047;50.936;4.654;2023-02-03T17:38:48;9.27;;;3.25;;
26335;SDS011;14047;50.936;4.654;2023-02-03T17:41:23;9.80;;;3.58;;
26335;SDS011;14047;50.936;4.654;2023-02-03T17:43:50;13.05;;;3.67;;
26335;SDS011;14047;50.936;4.654;2023-02-03T17:46:21;8.82;;;4.47;;
26335;SDS011;14047;50.936;4.654;2023-02-03T17:48:49;8.57;;;3.28;;
26335;SDS011;14047;50.936;4.654;2023-02-03T17:51:16;8.57;;;3.15;;
26335;SDS011;14047;50.936;4.654;2023-02-03T17:53:45;12.90;;;4.00;;
26335;SDS011;14047;50.936;4.654;2023-02-03T17:58:43;9.75;;;3.63;;
26335;SDS011;14047;50.936;4.654;2023-02-03T18:01:11;13.65;;;3.90;;
26335;SDS011;14047;50.936;4.654;2023-02-03T18:03:44;11.73;;;4.03;;